Time;durP1;ratioP1;P1;durP2;ratioP2;P2;SDS_P1;SDS_P2;PMS_P1;PMS_P2;Temp;Humidity;BMP_temperature;BMP_pressure;BME280_temperature;BME280_humidity;BME280_pressure;Samples;Min_cycle;Max_cycle;Signal;HPM_P1;HPM_P2
2022/12/23 00:01:26;;;;;;;0.00;0.00;;;8.60;99.90;;;;;;5093041;28;20040;-83
2022/12/23 00:03:55;;;;;;;0.47;0.47;;;8.70;99.90;;;;;;5075865;28;20097;-83
2022/12/23 00:06:21;;;;;;;0.03;0.00;;;8.70;99.90;;;;;;5092524;28;20063;-82
2022/12/23 00:08:46;;;;;;;0.00;0.00;;;8.60;99.90;;;;;;5076202;28;20392;-82
2022/12/23 00:11:18;;;;;;;0.17;0.17;;;8.70;99.90;;;;;;5076299;28;20036;-82
2022/12/23 00:16:28;;;;;;;1.70;0.10;;;8.70;99.90;;;;;;5092914;28;20047;-82
2022/12/23 00:18:54;;;;;;;0.10;0.10;;;8.70;99.90;;;;;;5059538;28;20044;-82
2022/12/23 00:21:20;;;;;;;0.00;0.00;;;8.70;99.90;;;;;;5092852;28;20472;-82
2022/12/23 00:23:48;;;;;;;0.45;0.15;;;8.70;99.90;;;;;;5059055;28;20101;-82
2022/12/23 00:26:15;;;;;;;1.50;0.30;;;8.70;99.90;;;;;;5092753;28;20038;-82
2022/12/23 00:28:40;;;;;;;0.00;0.00;;;8.70;99.90;;;;;;5093389;28;20075;-82
2022/12/23 00:31:07;;;;;;;0.22;0.22;;;8.70;99.90;;;;;;5059261;28;20440;-82
2022/12/23 00:33:38;;;;;;;0.10;0.10;;;8.70;99.90;;;;;;5092296;28;20087;-82
2022/12/23 00:36:22;;;;;;;0.00;0.00;;;8.70;99.90;;;;;;5093139;28;20040;-81
2022/12/23 00:44:16;;;;;;;0.32;0.13;;;8.70;99.90;;;;;;5078488;28;20051;-80
2022/12/23 00:46:42;;;;;;;0.10;0.00;;;8.70;99.90;;;;;;5076343;28;20036;-81
2022/12/23 00:51:54;;;;;;;0.00;0.00;;;8.70;99.90;;;;;;5078747;28;20048;-82
2022/12/23 00:54:20;;;;;;;0.00;0.00;;;8.70;99.90;;;;;;5075367;28;20185;-81
2022/12/23 00:56:45;;;;;;;0.00;0.00;;;8.70;99.90;;;;;;5092332;28;20044;-81
2022/12/23 00:59:11;;;;;;;0.00;0.00;;;8.80;99.90;;;;;;5093419;28;20077;-81
2022/12/23 01:07:06;;;;;;;0.55;0.30;;;8.80;99.90;;;;;;5092591;28;20048;-81
2022/12/23 01:09:31;;;;;;;0.00;0.00;;;8.80;99.90;;;;;;5075562;28;20051;-81
2022/12/23 01:11:57;;;;;;;0.00;0.00;;;8.80;99.90;;;;;;5075589;28;20043;-82
2022/12/23 01:14:23;;;;;;;0.00;0.00;;;8.80;99.90;;;;;;5092432;28;20043;-82
2022/12/23 01:16:49;;;;;;;1.75;0.10;;;8.80;99.90;;;;;;5075338;28;20036;-82
2022/12/23 01:19:14;;;;;;;0.00;0.00;;;8.80;99.90;;;;;;5061151;28;20046;-82
2022/12/23 01:21:40;;;;;;;0.17;0.17;;;8.80;99.90;;;;;;5062503;28;20048;-82
2022/12/23 01:24:07;;;;;;;0.00;0.00;;;8.90;99.90;;;;;;5062408;28;20044;-82
2022/12/23 01:26:32;;;;;;;0.08;0.08;;;8.80;99.90;;;;;;5095600;28;20503;-83
2022/12/23 01:28:59;;;;;;;0.10;0.10;;;8.80;99.90;;;;;;5078631;28;20048;-82
2022/12/23 01:31:27;;;;;;;0.00;0.00;;;8.80;99.90;;;;;;5079541;28;20080;-83
2022/12/23 01:33:53;;;;;;;3.30;1.02;;;8.80;99.90;;;;;;5095707;28;20048;-82
2022/12/23 01:36:20;;;;;;;0.10;0.10;;;8.80;99.90;;;;;;5095988;28;20128;-81
2022/12/23 01:38:46;;;;;;;0.15;0.00;;;8.80;99.90;;;;;;5078926;28;20055;-82
2022/12/23 01:44:48;;;;;;;0.55;0.13;;;8.80;99.90;;;;;;5062074;28;20495;-82
2022/12/23 01:48:01;;;;;;;0.32;0.32;;;8.80;99.90;;;;;;5079417;28;20057;-82
2022/12/23 01:50:41;;;;;;;0.00;0.00;;;8.80;99.90;;;;;;5067652;28;20052;-82
2022/12/23 01:53:16;;;;;;;0.00;0.00;;;8.80;99.90;;;;;;5095495;28;20143;-81
2022/12/23 01:55:54;;;;;;;0.10;0.00;;;8.80;99.90;;;;;;5095419;28;20044;-81
2022/12/23 01:58:29;;;;;;;0.00;0.00;;;8.80;99.90;;;;;;5078164;28;20090;-81
2022/12/23 02:03:41;;;;;;;0.00;0.00;;;8.80;99.90;;;;;;5094785;28;20116;-82
2022/12/23 02:09:23;;;;;;;0.73;0.00;;;8.80;99.90;;;;;;5095058;28;20075;-81
2022/12/23 02:11:48;;;;;;;0.00;0.00;;;8.80;99.90;;;;;;5095089;28;20048;-82
2022/12/23 02:17:27;;;;;;;0.00;0.00;;;8.80;99.90;;;;;;5094780;28;20047;-81
2022/12/23 02:20:10;;;;;;;0.00;0.00;;;8.80;99.90;;;;;;5095079;28;20396;-81
2022/12/23 02:23:00;;;;;;;0.00;0.00;;;8.80;99.90;;;;;;5078336;28;20070;-81
2022/12/23 02:25:47;;;;;;;0.65;0.20;;;8.80;99.90;;;;;;5078162;28;20048;-81
2022/12/23 02:28:32;;;;;;;0.00;0.00;;;8.80;99.90;;;;;;5094999;28;20083;-81
2022/12/23 02:31:09;;;;;;;0.00;0.00;;;8.80;99.90;;;;;;5093970;28;20052;-81
2022/12/23 02:33:43;;;;;;;0.47;0.25;;;8.80;99.90;;;;;;5094170;28;20055;-81
2022/12/23 02:36:51;;;;;;;0.00;0.00;;;8.80;99.90;;;;;;5094481;28;20109;-81
2022/12/23 02:39:48;;;;;;;0.10;0.10;;;8.80;99.90;;;;;;5043965;28;20492;-82
2022/12/23 02:42:22;;;;;;;0.00;0.00;;;8.70;99.90;;;;;;5087031;28;20462;-82
2022/12/23 02:45:15;;;;;;;0.30;0.30;;;8.80;99.90;;;;;;5094714;28;20075;-82
2022/12/23 02:47:48;;;;;;;0.08;0.00;;;8.70;99.90;;;;;;5077606;28;20052;-82
2022/12/23 02:50:19;;;;;;;0.00;0.00;;;8.70;99.90;;;;;;5094800;28;20105;-82
2022/12/23 02:52:48;;;;;;;0.00;0.00;;;8.70;99.90;;;;;;5094340;28;20488;-83
2022/12/23 02:55:26;;;;;;;0.00;0.00;;;8.70;99.90;;;;;;5093809;28;20044;-82
2022/12/23 02:57:54;;;;;;;0.00;0.00;;;8.60;99.90;;;;;;5094464;28;20400;-82
2022/12/23 03:00:21;;;;;;;0.00;0.00;;;8.60;99.90;;;;;;5077323;28;20044;-83
2022/12/23 03:02:47;;;;;;;0.00;0.00;;;8.60;99.90;;;;;;5076904;28;20121;-83
2022/12/23 03:05:23;;;;;;;0.00;0.00;;;8.60;99.90;;;;;;5060474;28;20044;-83
2022/12/23 03:07:51;;;;;;;0.00;0.00;;;8.60;99.90;;;;;;5077326;28;20417;-83
2022/12/23 03:10:58;;;;;;;0.00;0.00;;;8.60;99.90;;;;;;5093626;28;20539;-83
2022/12/23 03:13:55;;;;;;;0.00;0.00;;;8.60;99.90;;;;;;5075900;28;20505;-83
2022/12/23 03:16:38;;;;;;;0.00;0.00;;;8.60;99.90;;;;;;5093981;28;20048;-83
2022/12/23 03:19:19;;;;;;;0.03;0.03;;;8.60;99.90;;;;;;5076548;28;20104;-83
2022/12/23 03:21:52;;;;;;;0.00;0.00;;;8.60;99.90;;;;;;5077041;28;20048;-83
2022/12/23 03:24:27;;;;;;;0.00;0.00;;;8.60;99.90;;;;;;5093742;28;20087;-83
2022/12/23 03:27:01;;;;;;;0.00;0.00;;;8.60;99.90;;;;;;5093348;28;20048;-83
2022/12/23 03:29:42;;;;;;;0.00;0.00;;;8.60;99.90;;;;;;5093706;28;20055;-83
2022/12/23 03:32:11;;;;;;;0.00;0.00;;;8.50;99.90;;;;;;5076709;28;20048;-83
2022/12/23 03:34:41;;;;;;;0.00;0.00;;;8.50;99.90;;;;;;5076174;28;20063;-83
2022/12/23 03:37:10;;;;;;;0.00;0.00;;;8.50;99.90;;;;;;5093210;28;20048;-83
2022/12/23 03:39:51;;;;;;;0.10;0.10;;;8.50;99.90;;;;;;5093419;28;20055;-83
2022/12/23 03:42:22;;;;;;;0.00;0.00;;;8.40;99.90;;;;;;5093387;28;20399;-82
2022/12/23 03:44:51;;;;;;;0.10;0.10;;;8.40;99.90;;;;;;5093327;28;20052;-83
2022/12/23 03:47:26;;;;;;;0.03;0.03;;;8.40;99.90;;;;;;5076623;28;20047;-83
2022/12/23 03:50:04;;;;;;;0.20;0.10;;;8.40;99.90;;;;;;5076183;28;20050;-83
2022/12/23 03:52:49;;;;;;;0.52;0.10;;;8.40;99.90;;;;;;5093347;28;20044;-83
2022/12/23 03:55:20;;;;;;;0.40;0.17;;;8.30;99.90;;;;;;5076624;28;20044;-83
2022/12/23 03:57:57;;;;;;;0.10;0.10;;;8.30;99.90;;;;;;5076603;28;20101;-83
2022/12/23 04:00:23;;;;;;;0.10;0.10;;;8.30;99.90;;;;;;5093584;28;20131;-83
2022/12/23 04:02:59;;;;;;;0.20;0.20;;;8.30;99.90;;;;;;5059377;28;20444;-83
2022/12/23 04:05:36;;;;;;;0.00;0.00;;;8.30;99.90;;;;;;5093616;28;20446;-83
2022/12/23 04:08:26;;;;;;;0.52;0.10;;;8.30;99.90;;;;;;5076355;28;20049;-83
2022/12/23 04:10:52;;;;;;;0.00;0.00;;;8.30;99.90;;;;;;5077178;28;20052;-83
2022/12/23 04:13:18;;;;;;;0.52;0.15;;;8.30;99.90;;;;;;5094098;28;20063;-82
2022/12/23 04:15:44;;;;;;;0.00;0.00;;;8.30;99.90;;;;;;5094161;28;20048;-83
2022/12/23 04:18:10;;;;;;;1.90;0.00;;;8.20;99.90;;;;;;5075787;28;20397;-83
2022/12/23 04:20:36;;;;;;;0.00;0.00;;;8.20;99.90;;;;;;5076315;28;20051;-83
2022/12/23 04:23:02;;;;;;;0.10;0.10;;;8.20;99.90;;;;;;5059246;28;20083;-83
2022/12/23 04:25:27;;;;;;;0.35;0.28;;;8.20;99.90;;;;;;5059375;28;20055;-83
2022/12/23 04:27:53;;;;;;;0.45;0.20;;;8.20;99.90;;;;;;5075919;28;20093;-83
2022/12/23 04:30:19;;;;;;;1.27;0.08;;;8.20;99.90;;;;;;5092763;28;20406;-83
2022/12/23 04:32:45;;;;;;;0.17;0.17;;;8.20;99.90;;;;;;5059228;28;20055;-83
2022/12/23 04:35:11;;;;;;;0.50;0.45;;;8.20;99.90;;;;;;5075645;28;20040;-83
2022/12/23 04:37:37;;;;;;;0.00;0.00;;;8.20;99.90;;;;;;5075360;28;20143;-83
2022/12/23 04:40:04;;;;;;;0.20;0.20;;;8.20;99.90;;;;;;5092759;28;20055;-83
2022/12/23 04:42:29;;;;;;;0.00;0.00;;;8.20;99.90;;;;;;5076494;28;20047;-83
2022/12/23 04:44:55;;;;;;;0.52;0.30;;;8.20;99.90;;;;;;5075750;28;20063;-83
2022/12/23 04:47:21;;;;;;;0.47;0.35;;;8.10;99.90;;;;;;5059058;28;20044;-83
2022/12/23 04:49:47;;;;;;;1.27;0.50;;;8.10;99.90;;;;;;5075974;28;20094;-83
2022/12/23 04:52:12;;;;;;;0.40;0.40;;;8.10;99.90;;;;;;5076194;28;20056;-83
2022/12/23 04:54:38;;;;;;;3.10;0.45;;;8.10;99.90;;;;;;5096199;28;20047;-83
2022/12/23 04:57:04;;;;;;;3.45;1.40;;;8.10;99.90;;;;;;5079485;28;20134;-83
2022/12/23 04:59:30;;;;;;;0.10;0.10;;;8.10;99.90;;;;;;5079639;28;20134;-83
2022/12/23 05:01:56;;;;;;;0.43;0.20;;;8.10;99.90;;;;;;5080025;28;20416;-83
2022/12/23 05:04:22;;;;;;;3.33;0.73;;;8.10;99.90;;;;;;5095822;28;20091;-82
2022/12/23 05:06:48;;;;;;;0.00;0.00;;;8.10;99.90;;;;;;5079348;28;20052;-83
2022/12/23 05:09:14;;;;;;;3.72;0.43;;;8.10;99.90;;;;;;5096294;28;20097;-83
2022/12/23 05:11:40;;;;;;;3.75;0.63;;;8.10;99.90;;;;;;5062665;28;20047;-83
2022/12/23 05:14:05;;;;;;;0.25;0.10;;;8.10;99.90;;;;;;5079272;28;20055;-83
2022/12/23 05:16:31;;;;;;;0.00;0.00;;;8.10;99.90;;;;;;5079189;28;20071;-83
2022/12/23 05:18:57;;;;;;;0.00;0.00;;;8.10;99.90;;;;;;5062287;28;20051;-83
2022/12/23 05:21:28;;;;;;;0.00;0.00;;;8.10;99.90;;;;;;5096189;28;20173;-83
2022/12/23 05:23:55;;;;;;;1.25;0.35;;;8.10;99.90;;;;;;5078771;28;20146;-83
2022/12/23 05:26:20;;;;;;;0.45;0.25;;;8.10;99.90;;;;;;5062178;28;20495;-83
2022/12/23 05:28:46;;;;;;;0.00;0.00;;;8.00;99.90;;;;;;5079338;28;20185;-83
2022/12/23 05:31:13;;;;;;;0.45;0.45;;;8.00;99.90;;;;;;5062390;28;20048;-83
2022/12/23 05:33:39;;;;;;;2.08;0.13;;;8.00;99.90;;;;;;5078425;28;20048;-83
2022/12/23 05:36:05;;;;;;;1.92;0.55;;;8.00;99.90;;;;;;5095829;28;20043;-83
2022/12/23 05:38:31;;;;;;;0.00;0.00;;;7.90;99.90;;;;;;5061838;28;20480;-82
2022/12/23 05:41:00;;;;;;;1.30;0.32;;;7.90;99.90;;;;;;5079119;28;20046;-83
2022/12/23 05:43:26;;;;;;;0.38;0.28;;;7.90;99.90;;;;;;5078828;28;20044;-83
2022/12/23 05:45:51;;;;;;;0.17;0.17;;;7.80;99.90;;;;;;5095721;28;20050;-83
2022/12/23 05:48:17;;;;;;;1.50;0.55;;;7.80;99.90;;;;;;5095469;28;20047;-83
2022/12/23 05:50:43;;;;;;;0.43;0.43;;;7.80;99.90;;;;;;5062380;28;20052;-83
2022/12/23 05:53:11;;;;;;;0.10;0.10;;;7.80;99.90;;;;;;5095415;28;20452;-83
2022/12/23 05:55:37;;;;;;;0.13;0.13;;;7.80;99.90;;;;;;5078965;28;20059;-83
2022/12/23 05:58:02;;;;;;;0.52;0.30;;;7.80;99.90;;;;;;5078211;28;20040;-83
2022/12/23 06:00:28;;;;;;;0.00;0.00;;;7.80;99.90;;;;;;5078466;28;20040;-83
2022/12/23 06:02:54;;;;;;;1.38;0.10;;;7.80;99.90;;;;;;5078171;28;20048;-83
2022/12/23 06:05:20;;;;;;;0.10;0.10;;;7.80;99.90;;;;;;5078082;28;20499;-83
2022/12/23 06:07:46;;;;;;;0.20;0.10;;;7.80;99.90;;;;;;5078384;28;20105;-83
2022/12/23 06:10:11;;;;;;;0.00;0.00;;;7.80;99.90;;;;;;5095393;28;20564;-83
2022/12/23 06:12:37;;;;;;;0.00;0.00;;;7.80;99.90;;;;;;5061592;28;20051;-83
2022/12/23 06:15:04;;;;;;;0.10;0.10;;;7.70;99.90;;;;;;5061478;28;20050;-83
2022/12/23 06:17:30;;;;;;;0.00;0.00;;;7.90;99.90;;;;;;5061081;28;20043;-83
2022/12/23 06:19:56;;;;;;;0.00;0.00;;;7.80;99.90;;;;;;5095103;28;20044;-83
2022/12/23 06:22:22;;;;;;;0.10;0.00;;;7.90;99.90;;;;;;5094904;28;20062;-83
2022/12/23 06:24:49;;;;;;;0.05;0.05;;;7.90;99.90;;;;;;5061678;28;20127;-83
2022/12/23 06:27:15;;;;;;;0.00;0.00;;;7.80;99.90;;;;;;5061434;28;20139;-83
2022/12/23 06:29:41;;;;;;;0.73;0.20;;;7.80;99.90;;;;;;5077942;28;20070;-83
2022/12/23 06:32:07;;;;;;;4.65;0.35;;;7.80;99.90;;;;;;5094563;28;20044;-82
2022/12/23 06:34:32;;;;;;;0.80;0.45;;;7.80;99.90;;;;;;5094280;28;20044;-82
2022/12/23 06:36:58;;;;;;;0.00;0.00;;;7.80;99.90;;;;;;5077288;28;20060;-82
2022/12/23 06:39:24;;;;;;;0.08;0.08;;;7.70;99.90;;;;;;5077846;28;20063;-83
2022/12/23 06:41:50;;;;;;;0.00;0.00;;;7.70;99.90;;;;;;5094499;28;20044;-83
2022/12/23 06:44:16;;;;;;;0.05;0.05;;;7.70;99.90;;;;;;5061130;28;20055;-83
2022/12/23 06:46:41;;;;;;;0.00;0.00;;;7.70;99.90;;;;;;5094154;28;20408;-83
2022/12/23 06:49:07;;;;;;;0.47;0.28;;;7.70;99.90;;;;;;5077455;28;20051;-82
2022/12/23 06:51:33;;;;;;;0.00;0.00;;;7.70;99.90;;;;;;5094028;28;20584;-83
2022/12/23 06:53:59;;;;;;;0.00;0.00;;;7.70;99.90;;;;;;5060916;28;20059;-82
2022/12/23 06:56:25;;;;;;;0.57;0.13;;;7.70;99.90;;;;;;5077313;28;20070;-82
2022/12/23 06:58:54;;;;;;;0.52;0.40;;;7.70;99.90;;;;;;5077884;28;20098;-82
2022/12/23 07:01:20;;;;;;;0.00;0.00;;;7.70;99.90;;;;;;5076886;28;20044;-82
2022/12/23 07:03:46;;;;;;;0.00;0.00;;;7.70;99.90;;;;;;5076901;28;20403;-82
2022/12/23 07:06:12;;;;;;;0.00;0.00;;;7.80;99.90;;;;;;5044248;28;20135;-83
2022/12/23 07:08:37;;;;;;;0.10;0.00;;;7.70;99.90;;;;;;5060646;28;20090;-83
2022/12/23 07:11:04;;;;;;;0.15;0.15;;;7.70;99.90;;;;;;5060193;28;20129;-83
2022/12/23 07:13:34;;;;;;;0.82;0.77;;;7.70;99.90;;;;;;5093914;28;20051;-83
2022/12/23 07:16:04;;;;;;;0.00;0.00;;;7.70;99.90;;;;;;5093611;28;20048;-83
2022/12/23 07:18:30;;;;;;;0.38;0.38;;;7.70;99.90;;;;;;5076809;28;20055;-83
2022/12/23 07:20:59;;;;;;;0.00;0.00;;;7.70;99.90;;;;;;5060281;28;20445;-83
2022/12/23 07:23:24;;;;;;;0.10;0.10;;;7.70;99.90;;;;;;5077106;28;20055;-83
2022/12/23 07:25:50;;;;;;;0.43;0.25;;;7.70;99.90;;;;;;5060113;28;20040;-83
2022/12/23 07:28:16;;;;;;;0.00;0.00;;;7.60;99.90;;;;;;5043564;28;20051;-82
2022/12/23 07:30:41;;;;;;;0.17;0.03;;;7.60;99.90;;;;;;5076697;28;20044;-83
2022/12/23 07:33:07;;;;;;;0.00;0.00;;;7.60;99.90;;;;;;5059943;28;20040;-83
2022/12/23 07:35:33;;;;;;;0.00;0.00;;;7.60;99.90;;;;;;5076556;28;20504;-83
2022/12/23 07:37:58;;;;;;;0.00;0.00;;;7.60;99.90;;;;;;5059318;28;20060;-83
2022/12/23 07:40:24;;;;;;;0.00;0.00;;;7.60;99.90;;;;;;5076804;28;20051;-83
2022/12/23 07:42:55;;;;;;;3.85;0.45;;;7.60;99.90;;;;;;5094159;28;20161;-83
2022/12/23 07:45:24;;;;;;;0.43;0.00;;;7.60;99.90;;;;;;5076641;28;20052;-83
2022/12/23 07:47:58;;;;;;;0.00;0.00;;;7.60;99.90;;;;;;5059924;28;20052;-83
2022/12/23 07:50:25;;;;;;;0.00;0.00;;;7.60;99.90;;;;;;5093308;28;20598;-84
2022/12/23 07:52:51;;;;;;;0.17;0.13;;;7.60;99.90;;;;;;5093197;28;20093;-83
2022/12/23 07:55:17;;;;;;;0.00;0.00;;;7.60;99.90;;;;;;5076578;28;20150;-83
2022/12/23 07:57:46;;;;;;;0.00;0.00;;;7.60;99.90;;;;;;5059482;28;20524;-83
2022/12/23 08:00:13;;;;;;;0.15;0.15;;;7.60;99.90;;;;;;5076526;28;20559;-83
2022/12/23 08:02:39;;;;;;;0.10;0.00;;;7.60;99.90;;;;;;5093142;28;20134;-83
2022/12/23 08:05:05;;;;;;;0.03;0.03;;;7.60;99.90;;;;;;5092788;28;20047;-83
2022/12/23 08:07:31;;;;;;;0.00;0.00;;;7.60;99.90;;;;;;5092995;28;20093;-84
2022/12/23 08:09:57;;;;;;;0.00;0.00;;;7.60;99.90;;;;;;5076478;28;20052;-84
2022/12/23 08:12:23;;;;;;;0.10;0.10;;;7.60;99.90;;;;;;5077380;28;20052;-82
2022/12/23 08:14:51;;;;;;;0.00;0.00;;;7.50;99.90;;;;;;5094791;28;20054;-83
2022/12/23 08:17:19;;;;;;;1.02;0.50;;;7.60;99.90;;;;;;5062705;28;20051;-83
2022/12/23 08:19:46;;;;;;;0.00;0.00;;;7.60;99.90;;;;;;5061219;28;20051;-83
2022/12/23 08:22:12;;;;;;;0.00;0.00;;;7.60;99.90;;;;;;5059466;28;20391;-83
2022/12/23 08:24:37;;;;;;;0.00;0.00;;;7.60;99.90;;;;;;5092843;28;20048;-83
2022/12/23 08:27:03;;;;;;;0.00;0.00;;;7.60;99.90;;;;;;5091532;28;20043;-83
2022/12/23 08:29:29;;;;;;;0.00;0.00;;;7.70;99.90;;;;;;5094570;28;20106;-84
2022/12/23 08:31:54;;;;;;;0.00;0.00;;;7.70;99.90;;;;;;5059238;28;20043;-84
2022/12/23 08:34:20;;;;;;;1.10;0.10;;;7.70;99.90;;;;;;5059402;28;20049;-83
2022/12/23 08:36:47;;;;;;;0.20;0.10;;;7.70;99.90;;;;;;5059895;28;20040;-82
2022/12/23 08:39:13;;;;;;;0.00;0.00;;;7.70;99.90;;;;;;5076169;28;20063;-83
2022/12/23 08:41:44;;;;;;;0.00;0.00;;;7.70;99.90;;;;;;5059964;28;20044;-83
2022/12/23 08:44:10;;;;;;;0.43;0.17;;;7.80;99.90;;;;;;5077548;28;20044;-83
2022/12/23 08:46:37;;;;;;;0.00;0.00;;;7.80;99.90;;;;;;5095433;28;20464;-82
2022/12/23 08:49:04;;;;;;;0.00;0.00;;;7.90;99.90;;;;;;5065368;28;20135;-83
2022/12/23 08:51:30;;;;;;;0.00;0.00;;;8.00;99.90;;;;;;5058989;28;20048;-82
2022/12/23 08:53:58;;;;;;;0.05;0.00;;;7.90;99.90;;;;;;5076085;28;20049;-83
2022/12/23 08:56:26;;;;;;;0.00;0.00;;;8.00;99.90;;;;;;5076445;28;20090;-84
2022/12/23 08:58:53;;;;;;;0.00;0.00;;;8.00;99.90;;;;;;5076448;28;20045;-84
2022/12/23 09:01:21;;;;;;;0.55;0.00;;;8.00;99.90;;;;;;5076627;28;20040;-84
2022/12/23 09:03:50;;;;;;;0.75;0.30;;;8.00;99.90;;;;;;5059293;28;20131;-83
2022/12/23 09:06:18;;;;;;;0.00;0.00;;;8.00;99.90;;;;;;5043187;28;20041;-83
2022/12/23 09:08:44;;;;;;;0.20;0.20;;;8.00;99.90;;;;;;5076161;28;20037;-83
2022/12/23 09:11:13;;;;;;;0.10;0.10;;;7.90;99.90;;;;;;5059503;28;20044;-83
2022/12/23 09:13:39;;;;;;;0.30;0.10;;;8.00;99.90;;;;;;5075908;28;20044;-83
2022/12/23 09:16:06;;;;;;;0.00;0.00;;;8.00;99.90;;;;;;5059254;28;20051;-83
2022/12/23 09:18:32;;;;;;;2.53;0.10;;;8.00;99.90;;;;;;5059163;28;20041;-83
2022/12/23 09:21:13;;;;;;;0.40;0.10;;;8.00;99.90;;;;;;5059648;28;20404;-83
2022/12/23 09:23:39;;;;;;;0.00;0.00;;;8.00;99.90;;;;;;5075628;28;20048;-84
2022/12/23 09:26:06;;;;;;;0.00;0.00;;;8.10;99.90;;;;;;5075703;28;20050;-84
2022/12/23 09:28:32;;;;;;;1.23;0.50;;;8.00;99.90;;;;;;5076178;28;20052;-83
2022/12/23 09:31:10;;;;;;;0.10;0.10;;;8.00;99.90;;;;;;5090564;28;20040;-84
2022/12/23 09:33:36;;;;;;;0.10;0.10;;;8.00;99.90;;;;;;5058684;28;20048;-83
2022/12/23 09:36:03;;;;;;;0.00;0.00;;;8.00;99.90;;;;;;5059081;28;20106;-87
2022/12/23 09:38:29;;;;;;;0.00;0.00;;;8.00;99.90;;;;;;5091558;28;20056;-87
2022/12/23 09:41:03;;;;;;;0.00;0.00;;;8.00;99.90;;;;;;5059239;28;20059;-85
2022/12/23 09:43:50;;;;;;;0.00;0.00;;;8.10;99.90;;;;;;5059050;28;20044;-87
2022/12/23 09:46:25;;;;;;;0.00;0.00;;;8.10;99.90;;;;;;5059152;28;20500;-82
2022/12/23 09:48:57;;;;;;;;;;;8.10;99.90;;;;;;5059076;28;20040;-82
2022/12/23 09:51:24;;;;;;;0.28;0.28;;;8.10;99.90;;;;;;5075397;28;19988;-82
2022/12/23 09:54:07;;;;;;;0.85;0.57;;;8.20;99.90;;;;;;5092785;28;20480;-82
2022/12/23 09:56:47;;;;;;;0.52;0.30;;;8.20;99.90;;;;;;5075222;28;20122;-82
2022/12/23 09:59:37;;;;;;;0.00;0.00;;;8.20;99.90;;;;;;5091961;28;20500;-82
2022/12/23 10:02:21;;;;;;;0.52;0.52;;;8.20;99.90;;;;;;5058571;28;20109;-82
2022/12/23 10:05:24;;;;;;;1.42;0.20;;;8.20;99.90;;;;;;5091591;28;20045;-82
2022/12/23 10:08:11;;;;;;;2.95;0.17;;;8.20;99.90;;;;;;5058055;28;20056;-83
2022/12/23 10:10:52;;;;;;;0.00;0.00;;;8.20;99.90;;;;;;5075332;28;20516;-82
2022/12/23 10:13:47;;;;;;;0.20;0.20;;;8.20;99.90;;;;;;5074918;28;20124;-82
2022/12/23 10:16:24;;;;;;;0.10;0.10;;;8.20;99.90;;;;;;5073093;28;20060;-82
2022/12/23 10:19:21;;;;;;;0.30;0.15;;;8.20;99.90;;;;;;5091950;28;20114;-82
2022/12/23 10:22:01;;;;;;;0.32;0.25;;;8.20;99.90;;;;;;5075272;28;20040;-82
2022/12/23 10:24:39;;;;;;;0.47;0.03;;;8.20;99.90;;;;;;5057746;28;20052;-82
2022/12/23 10:27:33;;;;;;;0.00;0.00;;;8.20;99.90;;;;;;5091466;28;20045;-82
2022/12/23 10:30:06;;;;;;;0.10;0.10;;;8.20;99.90;;;;;;5091110;28;20048;-81
2022/12/23 10:32:58;;;;;;;0.10;0.08;;;8.20;99.90;;;;;;5092024;28;20067;-82
2022/12/23 10:35:41;;;;;;;0.03;0.03;;;8.30;99.90;;;;;;5057539;28;20102;-83
2022/12/23 10:38:31;;;;;;;0.30;0.08;;;8.30;99.90;;;;;;5057324;28;20089;-82
2022/12/23 10:41:13;;;;;;;0.80;0.30;;;8.30;99.90;;;;;;5075144;28;20143;-81
2022/12/23 10:44:02;;;;;;;0.20;0.13;;;8.30;99.90;;;;;;5091124;28;20044;-81
2022/12/23 10:46:34;;;;;;;0.03;0.00;;;8.30;99.90;;;;;;5029443;28;20397;-81
2022/12/23 10:49:02;;;;;;;0.03;0.03;;;8.40;99.90;;;;;;5090985;28;20040;-81
2022/12/23 10:51:40;;;;;;;0.00;0.00;;;8.40;99.90;;;;;;5090075;28;20077;-81
2022/12/23 10:54:36;;;;;;;0.10;0.10;;;8.50;99.90;;;;;;5091012;28;20059;-82
2022/12/23 10:57:04;;;;;;;0.65;0.20;;;8.50;99.90;;;;;;5054662;28;20044;-82
2022/12/23 10:59:32;;;;;;;2.08;0.20;;;8.50;99.90;;;;;;5091004;28;20044;-82
2022/12/23 11:02:10;;;;;;;0.00;0.00;;;8.50;99.90;;;;;;5057310;28;20063;-82
2022/12/23 11:04:38;;;;;;;0.43;0.43;;;8.50;99.90;;;;;;5090471;28;20101;-82
2022/12/23 11:07:06;;;;;;;2.00;0.22;;;8.60;99.90;;;;;;5090709;28;20048;-82
2022/12/23 11:10:03;;;;;;;0.10;0.10;;;8.60;99.90;;;;;;5090397;28;20044;-82
2022/12/23 11:12:40;;;;;;;0.10;0.10;;;8.70;99.90;;;;;;5056229;28;20160;-83
2022/12/23 11:15:26;;;;;;;0.08;0.08;;;8.70;99.90;;;;;;5090947;28;20410;-82
2022/12/23 11:18:04;;;;;;;0.00;0.00;;;8.70;99.90;;;;;;5090460;28;20051;-82
2022/12/23 11:20:30;;;;;;;0.00;0.00;;;8.70;99.90;;;;;;5073669;28;20041;-82
2022/12/23 11:23:00;;;;;;;0.50;0.50;;;8.70;99.90;;;;;;5056897;28;20093;-82
2022/12/23 11:25:40;;;;;;;0.82;0.35;;;8.70;99.90;;;;;;5057619;28;20048;-82
2022/12/23 11:28:09;;;;;;;0.70;0.28;;;8.70;99.90;;;;;;5090677;28;20059;-82
2022/12/23 11:30:47;;;;;;;0.52;0.20;;;8.70;99.90;;;;;;5090515;28;20036;-82
2022/12/23 11:33:31;;;;;;;0.32;0.32;;;8.70;99.90;;;;;;5090048;28;20044;-82
2022/12/23 11:36:11;;;;;;;4.78;1.63;;;8.70;99.90;;;;;;5056796;28;20052;-82
2022/12/23 11:39:01;;;;;;;2.05;0.82;;;8.70;99.90;;;;;;5089221;28;20496;-82
2022/12/23 11:41:32;;;;;;;1.05;0.17;;;8.70;99.90;;;;;;5073441;28;20412;-82
2022/12/23 11:44:17;;;;;;;0.30;0.30;;;8.70;99.90;;;;;;5056704;28;20048;-82
2022/12/23 11:46:43;;;;;;;6.30;0.68;;;8.70;99.90;;;;;;5057002;28;20098;-82
2022/12/23 11:49:26;;;;;;;0.95;0.15;;;8.60;99.90;;;;;;5093452;28;20048;-82
2022/12/23 11:52:16;;;;;;;0.80;0.30;;;8.60;99.90;;;;;;5074221;28;20032;-84
2022/12/23 11:54:49;;;;;;;0.45;0.40;;;8.70;99.90;;;;;;5073088;28;20048;-83
2022/12/23 11:57:19;;;;;;;1.60;0.30;;;8.70;99.90;;;;;;5087895;28;20492;-82
2022/12/23 11:59:48;;;;;;;0.40;0.40;;;8.70;99.90;;;;;;5069098;28;20048;-82
2022/12/23 12:02:36;;;;;;;0.13;0.13;;;8.70;99.90;;;;;;5071705;28;20484;-82
2022/12/23 12:05:15;;;;;;;0.20;0.20;;;8.70;99.90;;;;;;5061736;28;20047;-82
2022/12/23 12:07:43;;;;;;;0.43;0.00;;;8.70;99.90;;;;;;5076325;28;20101;-82
2022/12/23 12:10:27;;;;;;;0.45;0.38;;;8.70;99.90;;;;;;5072479;28;20052;-82
2022/12/23 12:12:57;;;;;;;0.63;0.63;;;8.70;99.90;;;;;;5060800;28;20050;-82
2022/12/23 12:15:30;;;;;;;0.25;0.17;;;8.70;99.90;;;;;;5092950;28;20090;-82
2022/12/23 12:17:56;;;;;;;0.32;0.13;;;8.70;99.90;;;;;;5075766;28;20484;-83
2022/12/23 12:21:00;;;;;;;0.00;0.00;;;8.70;99.90;;;;;;5059510;28;20142;-82
2022/12/23 12:23:26;;;;;;;1.10;0.38;;;8.60;99.90;;;;;;4975875;28;20093;-82
2022/12/23 12:26:11;;;;;;;0.20;0.20;;;8.70;99.90;;;;;;5053929;28;20052;-82
2022/12/23 12:28:40;;;;;;;1.45;0.80;;;8.70;99.90;;;;;;5077676;28;20138;-83
2022/12/23 12:31:39;;;;;;;0.10;0.10;;;8.60;99.90;;;;;;5077021;28;20504;-83
2022/12/23 12:34:27;;;;;;;4.30;0.65;;;8.60;99.90;;;;;;5076519;28;20044;-83
2022/12/23 12:37:09;;;;;;;0.00;0.00;;;8.60;99.90;;;;;;5064799;28;20123;-82
2022/12/23 12:39:41;;;;;;;0.20;0.15;;;8.60;99.90;;;;;;5076431;28;20040;-84
2022/12/23 12:42:29;;;;;;;1.75;0.40;;;8.60;99.90;;;;;;5093036;28;20403;-84
2022/12/23 12:45:27;;;;;;;0.10;0.10;;;8.60;99.90;;;;;;5077977;28;20097;-82
2022/12/23 12:48:28;;;;;;;0.60;0.32;;;8.50;99.90;;;;;;5080925;28;20117;-83
2022/12/23 12:51:32;;;;;;;1.65;0.90;;;8.50;99.90;;;;;;5076249;28;20048;-84
2022/12/23 12:54:10;;;;;;;0.57;0.32;;;8.50;99.90;;;;;;5069471;28;20059;-83
2022/12/23 12:56:46;;;;;;;0.32;0.30;;;8.50;99.90;;;;;;5074983;28;20047;-84
2022/12/23 12:59:18;;;;;;;1.42;0.60;;;8.50;99.90;;;;;;5077972;28;20054;-84
2022/12/23 13:02:05;;;;;;;0.00;0.00;;;8.50;99.90;;;;;;5085176;28;20048;-86
2022/12/23 13:04:59;;;;;;;0.55;0.55;;;8.50;99.90;;;;;;5075018;28;20397;-85
2022/12/23 13:07:43;;;;;;;6.80;1.15;;;8.50;99.90;;;;;;5072555;28;20041;-84
2022/12/23 13:10:18;;;;;;;1.40;0.45;;;8.50;99.90;;;;;;5082791;28;20049;-84
2022/12/23 13:13:20;;;;;;;2.10;0.57;;;8.40;99.90;;;;;;5083601;28;20059;-83
2022/12/23 13:15:59;;;;;;;0.08;0.08;;;8.40;99.90;;;;;;5041423;28;20064;-83
2022/12/23 13:18:25;;;;;;;3.30;0.80;;;8.50;99.90;;;;;;5083964;28;20044;-83
2022/12/23 13:21:13;;;;;;;11.98;0.65;;;8.40;99.90;;;;;;5075141;28;20036;-85
2022/12/23 13:23:53;;;;;;;0.82;0.20;;;8.40;99.90;;;;;;5064182;28;20041;-84
2022/12/23 13:26:51;;;;;;;0.52;0.45;;;8.40;99.90;;;;;;5060305;28;20146;-84
2022/12/23 13:30:01;;;;;;;1.45;0.85;;;8.40;99.90;;;;;;5038776;28;20504;-84
2022/12/23 13:32:50;;;;;;;0.75;0.75;;;8.30;99.90;;;;;;5089781;28;20052;-84
2022/12/23 13:35:37;;;;;;;2.00;0.70;;;8.30;99.90;;;;;;5098890;28;20079;-84
2022/12/23 13:38:24;;;;;;;0.00;0.00;;;8.40;99.90;;;;;;5099339;28;20059;-84
2022/12/23 13:41:09;;;;;;;0.10;0.10;;;8.30;99.90;;;;;;5092728;28;20132;-84
2022/12/23 13:43:46;;;;;;;4.45;0.70;;;8.30;99.90;;;;;;5085918;28;20044;-82
2022/12/23 13:46:41;;;;;;;0.28;0.20;;;8.30;99.90;;;;;;5095614;28;20044;-81
2022/12/23 13:49:13;;;;;;;1.88;0.95;;;8.30;99.90;;;;;;5095565;28;20052;-81
2022/12/23 13:51:54;;;;;;;0.20;0.20;;;8.30;99.90;;;;;;5101857;28;20044;-82
2022/12/23 13:54:42;;;;;;;1.15;1.13;;;8.30;99.90;;;;;;5110561;28;20048;-82
2022/12/23 13:57:26;;;;;;;0.10;0.10;;;8.30;99.90;;;;;;5115572;28;20043;-82